Time;durP1;ratioP1;P1;durP2;ratioP2;P2;SDS_P1;SDS_P2;PMS_P1;PMS_P2;Temp;Humidity;BMP_temperature;BMP_pressure;BME280_temperature;BME280_humidity;BME280_pressure;Samples;Min_cycle;Max_cycle;Signal;HPM_P1;HPM_P2
2022/10/16 00:00:41;;;;;;;3.10;2.80;;;16.00;85.30;;;;;;5015714;28;20133;-62
2022/10/16 00:03:07;;;;;;;2.70;2.50;;;16.00;85.30;;;;;;5018171;28;20131;-63
2022/10/16 00:05:37;;;;;;;3.00;2.60;;;16.00;85.20;;;;;;5018550;28;20030;-61
2022/10/16 00:08:03;;;;;;;2.92;2.60;;;16.00;85.20;;;;;;5017381;28;20077;-63
2022/10/16 00:10:28;;;;;;;3.45;2.85;;;16.00;85.20;;;;;;5019651;28;20418;-59
2022/10/16 00:12:54;;;;;;;3.85;2.60;;;16.00;85.10;;;;;;5017696;28;20572;-61
2022/10/16 00:15:20;;;;;;;3.22;2.38;;;16.00;85.00;;;;;;5018348;28;20494;-61
2022/10/16 00:17:45;;;;;;;2.60;2.40;;;16.00;85.10;;;;;;5017453;28;20585;-62
2022/10/16 00:20:11;;;;;;;4.38;2.78;;;16.00;85.00;;;;;;5018671;28;20042;-61
2022/10/16 00:22:36;;;;;;;2.63;2.42;;;16.00;85.00;;;;;;5017796;28;20037;-62
2022/10/16 00:25:02;;;;;;;2.55;2.30;;;15.90;85.00;;;;;;5016385;28;20040;-61
2022/10/16 00:27:28;;;;;;;3.47;2.80;;;15.90;85.00;;;;;;5016611;28;20124;-60
2022/10/16 00:29:54;;;;;;;6.97;2.97;;;15.90;85.20;;;;;;5018941;28;20176;-62
2022/10/16 00:32:20;;;;;;;3.05;2.75;;;15.90;85.20;;;;;;5016311;28;20125;-61
2022/10/16 00:34:46;;;;;;;4.78;2.58;;;15.90;85.40;;;;;;4998772;28;20048;-63
2022/10/16 00:37:12;;;;;;;2.90;2.30;;;15.90;85.50;;;;;;5016683;28;20083;-61
2022/10/16 00:39:38;;;;;;;4.22;2.03;;;15.90;85.60;;;;;;5014671;28;20547;-63
2022/10/16 00:42:04;;;;;;;4.70;2.35;;;15.90;85.70;;;;;;5016646;28;20041;-62
2022/10/16 00:44:53;;;;;;;3.15;2.08;;;16.00;85.90;;;;;;5015599;28;20085;-61
2022/10/16 00:47:29;;;;;;;2.78;2.15;;;15.90;86.80;;;;;;5014775;28;20034;-62
2022/10/16 00:50:16;;;;;;;2.60;2.00;;;15.90;86.70;;;;;;5013323;28;20041;-61
2022/10/16 00:52:45;;;;;;;2.15;1.95;;;16.00;86.30;;;;;;5013975;28;20035;-62
2022/10/16 00:55:11;;;;;;;2.03;1.92;;;16.00;85.90;;;;;;5015742;28;20055;-62
2022/10/16 00:57:38;;;;;;;2.08;1.85;;;16.00;85.90;;;;;;5014752;28;20065;-62
2022/10/16 01:00:08;;;;;;;5.05;2.10;;;16.00;85.90;;;;;;5015761;28;20050;-61
2022/10/16 01:02:34;;;;;;;3.15;1.90;;;16.00;86.00;;;;;;5022428;28;20033;-62
2022/10/16 01:04:59;;;;;;;3.35;1.70;;;15.90;86.00;;;;;;5015695;28;20037;-62
2022/10/16 01:07:43;;;;;;;2.58;1.60;;;15.90;86.80;;;;;;5016034;28;20332;-63
2022/10/16 01:10:21;;;;;;;4.55;1.77;;;16.00;86.20;;;;;;5018212;28;20041;-62
2022/10/16 01:12:51;;;;;;;1.90;1.58;;;16.00;85.90;;;;;;5015364;28;20072;-62
2022/10/16 01:15:31;;;;;;;3.88;1.77;;;16.00;85.80;;;;;;5016024;28;20472;-61
2022/10/16 01:18:26;;;;;;;2.33;1.60;;;15.90;85.90;;;;;;5015376;28;21733;-61
2022/10/16 01:20:59;;;;;;;5.22;1.63;;;16.00;86.00;;;;;;5015063;28;20150;-62
2022/10/16 01:23:25;;;;;;;2.17;1.70;;;15.90;85.70;;;;;;5016691;28;20382;-63
2022/10/16 01:26:08;;;;;;;2.42;1.70;;;15.90;85.70;;;;;;5014961;28;20036;-62
2022/10/16 01:28:49;;;;;;;3.45;1.63;;;15.90;86.00;;;;;;5015882;28;20164;-62
2022/10/16 01:31:19;;;;;;;2.33;2.13;;;15.90;86.20;;;;;;5016529;28;20041;-62
2022/10/16 01:34:02;;;;;;;2.15;1.90;;;15.90;86.20;;;;;;5016226;28;20136;-62
2022/10/16 01:36:35;;;;;;;2.63;1.90;;;15.90;86.40;;;;;;5017239;28;20033;-62
2022/10/16 01:39:02;;;;;;;3.53;1.88;;;16.00;86.40;;;;;;5015368;28;20579;-62
2022/10/16 01:41:33;;;;;;;4.50;1.83;;;15.90;86.30;;;;;;5015894;28;20037;-62
2022/10/16 01:44:13;;;;;;;4.40;2.05;;;15.90;86.40;;;;;;5016170;28;20037;-60
2022/10/16 01:46:42;;;;;;;3.05;1.52;;;15.90;86.50;;;;;;5013480;28;20623;-62
2022/10/16 01:49:10;;;;;;;2.15;1.92;;;15.90;86.30;;;;;;5016148;28;20045;-62
2022/10/16 01:51:36;;;;;;;1.98;1.88;;;15.90;86.40;;;;;;5016719;28;20064;-62
2022/10/16 01:54:03;;;;;;;2.47;1.50;;;15.90;86.40;;;;;;5015871;28;20049;-62
2022/10/16 01:56:30;;;;;;;2.78;1.55;;;15.90;86.50;;;;;;5015168;28;20210;-61
2022/10/16 01:59:01;;;;;;;3.28;2.05;;;16.00;86.60;;;;;;5011409;28;20043;-62
2022/10/16 02:01:30;;;;;;;3.83;1.65;;;15.90;86.60;;;;;;5016037;28;20034;-62
2022/10/16 02:03:58;;;;;;;2.17;1.92;;;15.90;86.70;;;;;;5014318;28;20516;-61
2022/10/16 02:06:25;;;;;;;4.55;1.95;;;16.00;86.80;;;;;;5014973;28;20061;-62
2022/10/16 02:08:51;;;;;;;5.80;1.80;;;15.90;86.70;;;;;;5013757;28;20037;-62
2022/10/16 02:11:16;;;;;;;2.25;2.03;;;15.90;86.80;;;;;;5013869;28;20390;-61
2022/10/16 02:13:47;;;;;;;2.33;2.00;;;15.90;86.70;;;;;;5016562;28;20038;-62
2022/10/16 02:16:14;;;;;;;2.13;1.92;;;15.90;87.00;;;;;;5015726;28;20046;-60
2022/10/16 02:18:42;;;;;;;2.60;2.00;;;15.90;87.10;;;;;;5015211;28;20168;-60
2022/10/16 02:21:28;;;;;;;3.60;1.88;;;15.90;87.10;;;;;;5018010;28;20570;-60
2022/10/16 02:24:05;;;;;;;2.25;1.88;;;15.90;87.30;;;;;;5019482;28;20448;-62
2022/10/16 02:26:44;;;;;;;2.45;1.80;;;15.90;87.10;;;;;;5018687;28;21012;-62
2022/10/16 02:29:14;;;;;;;6.60;2.00;;;16.00;87.10;;;;;;5020063;28;20046;-60
2022/10/16 02:31:47;;;;;;;2.78;1.95;;;15.90;86.90;;;;;;5020293;28;20366;-62
2022/10/16 02:34:14;;;;;;;3.00;1.83;;;15.90;86.90;;;;;;5018925;28;20440;-60
2022/10/16 02:36:41;;;;;;;1.80;1.60;;;16.00;86.90;;;;;;5015925;28;20034;-62
2022/10/16 02:39:08;;;;;;;3.08;2.10;;;16.00;86.90;;;;;;5018362;28;20049;-60
2022/10/16 02:41:34;;;;;;;1.63;1.52;;;16.00;86.90;;;;;;5018619;28;20052;-62
2022/10/16 02:43:59;;;;;;;2.60;1.75;;;16.00;86.90;;;;;;5018165;28;20037;-62
2022/10/16 02:46:25;;;;;;;2.35;2.00;;;16.00;86.70;;;;;;5016986;28;20034;-61
2022/10/16 02:48:50;;;;;;;4.07;1.90;;;16.00;86.70;;;;;;5017793;28;20406;-61
2022/10/16 02:51:16;;;;;;;2.85;1.55;;;16.00;86.70;;;;;;5017978;28;20164;-61
2022/10/16 02:53:41;;;;;;;6.68;1.95;;;16.00;86.70;;;;;;5018729;28;20072;-62
2022/10/16 02:56:07;;;;;;;2.10;1.90;;;16.00;86.70;;;;;;5016428;28;20476;-62
2022/10/16 02:58:32;;;;;;;3.20;1.92;;;16.00;86.70;;;;;;5018464;28;20040;-62
2022/10/16 03:00:58;;;;;;;2.42;1.77;;;16.00;86.70;;;;;;5017526;28;20397;-61
2022/10/16 03:03:24;;;;;;;3.15;1.70;;;16.00;86.80;;;;;;5018429;28;20144;-61
2022/10/16 03:05:49;;;;;;;2.15;1.65;;;16.00;86.70;;;;;;5016947;28;20090;-62
2022/10/16 03:08:15;;;;;;;2.85;1.92;;;16.00;86.70;;;;;;5018118;28;20615;-62
2022/10/16 03:10:41;;;;;;;2.22;2.10;;;16.00;86.70;;;;;;5017483;28;20127;-61
2022/10/16 03:13:06;;;;;;;2.78;2.13;;;16.00;86.60;;;;;;5019224;28;20038;-62
2022/10/16 03:15:32;;;;;;;2.60;1.98;;;16.00;86.60;;;;;;5019047;28;20437;-62
2022/10/16 03:17:58;;;;;;;3.05;1.80;;;15.90;86.60;;;;;;5017500;28;20116;-61
2022/10/16 03:20:24;;;;;;;2.17;1.80;;;15.90;86.60;;;;;;5019534;28;20057;-62
2022/10/16 03:22:50;;;;;;;5.18;1.90;;;16.00;86.90;;;;;;5018005;28;20425;-62
2022/10/16 03:25:16;;;;;;;2.47;1.67;;;16.00;86.90;;;;;;5018895;28;20045;-60
2022/10/16 03:27:41;;;;;;;1.67;1.58;;;15.90;86.70;;;;;;5017263;28;20041;-60
2022/10/16 03:30:08;;;;;;;2.58;1.90;;;16.00;86.70;;;;;;5018411;28;20513;-62
2022/10/16 03:32:33;;;;;;;2.00;1.80;;;15.90;86.70;;;;;;5015551;28;20108;-60
2022/10/16 03:34:59;;;;;;;5.35;1.73;;;16.00;86.70;;;;;;5018419;28;20484;-61
2022/10/16 03:37:25;;;;;;;3.17;2.10;;;16.00;86.60;;;;;;5016696;28;20064;-61
2022/10/16 03:39:50;;;;;;;3.63;2.00;;;16.00;86.60;;;;;;5016642;28;20071;-61
2022/10/16 03:42:16;;;;;;;2.45;1.88;;;16.00;86.40;;;;;;5018364;28;20497;-60
2022/10/16 03:44:41;;;;;;;3.63;2.30;;;16.00;86.60;;;;;;5016498;28;20061;-61
2022/10/16 03:47:07;;;;;;;10.40;2.30;;;15.90;86.40;;;;;;5014622;28;20570;-62
2022/10/16 03:49:33;;;;;;;3.58;1.80;;;16.00;86.50;;;;;;5018061;28;20469;-61
2022/10/16 03:51:58;;;;;;;1.98;1.88;;;15.90;86.50;;;;;;5016548;28;20034;-62
2022/10/16 03:54:24;;;;;;;2.63;1.77;;;15.90;86.50;;;;;;5016299;28;20048;-62
2022/10/16 03:56:49;;;;;;;3.83;1.80;;;15.90;86.50;;;;;;5015974;28;20267;-61
2022/10/16 03:59:15;;;;;;;2.60;2.05;;;15.80;86.40;;;;;;5016879;28;20065;-62
2022/10/16 04:01:40;;;;;;;4.10;1.63;;;15.80;86.40;;;;;;5016080;28;20634;-60
2022/10/16 04:04:06;;;;;;;3.53;2.20;;;15.80;86.60;;;;;;5016025;28;20045;-60
2022/10/16 04:06:31;;;;;;;2.58;1.85;;;15.80;86.60;;;;;;5015907;28;20037;-59
2022/10/16 04:08:57;;;;;;;3.28;1.90;;;15.80;86.70;;;;;;5014584;28;20034;-61
2022/10/16 04:11:23;;;;;;;4.53;2.10;;;15.80;86.70;;;;;;5016310;28;20425;-62
2022/10/16 04:13:48;;;;;;;2.80;2.40;;;15.70;86.80;;;;;;5018503;28;20038;-62
2022/10/16 04:16:14;;;;;;;4.13;2.80;;;15.80;86.80;;;;;;5015708;28;20128;-61
2022/10/16 04:18:39;;;;;;;3.70;2.33;;;15.70;86.80;;;;;;5015360;28;20041;-60
2022/10/16 04:21:06;;;;;;;5.22;2.67;;;15.70;86.80;;;;;;5014161;28;20037;-62
2022/10/16 04:23:33;;;;;;;4.32;2.75;;;15.70;86.60;;;;;;5018225;28;20072;-62
2022/10/16 04:25:59;;;;;;;6.05;3.20;;;15.70;86.50;;;;;;5014873;28;20706;-60
2022/10/16 04:28:24;;;;;;;3.47;2.95;;;15.70;86.60;;;;;;5016134;28;20072;-60
2022/10/16 04:30:50;;;;;;;5.20;3.10;;;15.60;86.70;;;;;;5014124;28;20037;-61
2022/10/16 04:33:16;;;;;;;3.95;2.80;;;15.60;86.80;;;;;;5014961;28;20119;-62
2022/10/16 04:35:41;;;;;;;5.63;3.20;;;15.60;86.90;;;;;;5015374;28;20497;-61
2022/10/16 04:38:07;;;;;;;4.88;3.05;;;15.60;86.90;;;;;;5015144;28;20152;-62
2022/10/16 04:40:32;;;;;;;6.68;3.10;;;15.60;86.90;;;;;;5015209;28;20448;-61
2022/10/16 04:42:59;;;;;;;6.78;2.97;;;15.50;86.90;;;;;;5015963;28;20123;-61
2022/10/16 04:45:24;;;;;;;4.13;2.97;;;15.60;86.90;;;;;;5016987;28;20029;-62
2022/10/16 04:47:50;;;;;;;3.25;2.92;;;15.60;86.80;;;;;;5016406;28;20064;-61
2022/10/16 04:50:16;;;;;;;5.38;2.88;;;15.60;86.70;;;;;;5015778;28;20049;-61
2022/10/16 04:52:41;;;;;;;7.68;3.10;;;15.50;86.60;;;;;;5016851;28;20034;-63
2022/10/16 04:55:07;;;;;;;3.67;3.00;;;15.50;86.60;;;;;;5016743;28;20042;-62
2022/10/16 04:57:33;;;;;;;4.72;2.95;;;15.50;86.60;;;;;;5017144;28;20041;-60
2022/10/16 04:59:58;;;;;;;5.75;3.95;;;15.50;86.60;;;;;;5015410;28;20040;-62
2022/10/16 05:02:25;;;;;;;6.35;4.20;;;15.50;86.50;;;;;;5017218;28;20045;-62
2022/10/16 05:04:51;;;;;;;5.60;4.95;;;15.50;86.50;;;;;;5016796;28;20033;-62
2022/10/16 05:07:17;;;;;;;8.02;6.55;;;15.50;86.40;;;;;;5012651;28;20470;-62
2022/10/16 05:09:42;;;;;;;7.60;6.63;;;15.50;86.20;;;;;;5015636;28;20037;-61
2022/10/16 05:12:08;;;;;;;18.77;13.93;;;15.40;86.10;;;;;;5014477;28;20041;-62
2022/10/16 05:14:33;;;;;;;15.88;12.50;;;15.40;86.30;;;;;;5015532;28;20067;-62
2022/10/16 05:17:00;;;;;;;11.35;7.90;;;15.40;86.40;;;;;;5015128;28;20072;-62
2022/10/16 05:19:25;;;;;;;7.63;6.25;;;15.30;86.50;;;;;;5017407;28;20061;-61
2022/10/16 05:21:51;;;;;;;7.88;5.13;;;15.30;86.60;;;;;;5013232;28;20056;-61
2022/10/16 05:24:17;;;;;;;6.13;4.35;;;15.30;86.60;;;;;;5015686;28;20041;-62
2022/10/16 05:26:42;;;;;;;5.07;4.03;;;15.30;86.50;;;;;;5014054;28;20056;-62
2022/10/16 05:29:09;;;;;;;7.28;5.60;;;15.30;86.50;;;;;;5015524;28;20048;-62
2022/10/16 05:31:34;;;;;;;9.50;6.40;;;15.30;86.60;;;;;;5016401;28;20029;-62
2022/10/16 05:34:00;;;;;;;8.85;4.40;;;15.30;86.60;;;;;;5016395;28;20036;-62
2022/10/16 05:36:26;;;;;;;4.90;3.70;;;15.30;86.60;;;;;;5015508;28;20421;-62
2022/10/16 05:38:51;;;;;;;4.95;3.50;;;15.30;86.70;;;;;;5015200;28;20029;-62
2022/10/16 05:41:21;;;;;;;6.07;3.42;;;15.30;86.70;;;;;;5015201;28;20754;-61
2022/10/16 05:43:50;;;;;;;4.78;3.78;;;15.30;86.90;;;;;;5016590;28;20101;-62
2022/10/16 05:46:16;;;;;;;4.88;3.53;;;15.30;87.00;;;;;;5012662;28;20026;-61
2022/10/16 05:48:41;;;;;;;3.63;3.33;;;15.30;87.10;;;;;;5013375;28;20073;-61
2022/10/16 05:51:10;;;;;;;4.35;3.50;;;15.30;87.10;;;;;;5011647;28;20057;-61
2022/10/16 05:53:38;;;;;;;3.28;2.85;;;15.30;87.10;;;;;;5016312;28;20034;-61
2022/10/16 05:56:05;;;;;;;3.20;2.85;;;15.30;87.20;;;;;;5014891;28;20470;-61
2022/10/16 05:58:32;;;;;;;3.33;3.03;;;15.30;87.20;;;;;;5017516;28;20038;-62
2022/10/16 06:01:01;;;;;;;3.85;3.10;;;15.30;87.30;;;;;;5017878;28;20053;-61
2022/10/16 06:03:27;;;;;;;6.95;3.08;;;15.30;87.40;;;;;;5015997;28;20509;-61
2022/10/16 06:05:53;;;;;;;3.65;3.13;;;15.30;87.60;;;;;;5018004;28;20041;-62
2022/10/16 06:08:21;;;;;;;3.35;3.05;;;15.30;87.60;;;;;;5018591;28;20045;-62
2022/10/16 06:10:47;;;;;;;3.85;2.67;;;15.30;87.70;;;;;;5015960;28;20445;-61
2022/10/16 06:13:13;;;;;;;7.55;5.63;;;15.30;87.70;;;;;;5015766;28;20492;-61
2022/10/16 06:15:41;;;;;;;13.65;9.27;;;15.30;87.80;;;;;;5017381;28;20038;-61
2022/10/16 06:18:10;;;;;;;10.10;7.47;;;15.30;87.80;;;;;;5016814;28;20037;-62
2022/10/16 06:20:37;;;;;;;9.15;6.82;;;15.30;87.80;;;;;;5017452;28;20049;-62
2022/10/16 06:23:04;;;;;;;10.20;7.60;;;15.30;87.80;;;;;;5015107;28;20526;-62
2022/10/16 06:25:30;;;;;;;16.17;11.18;;;15.40;87.80;;;;;;5016300;28;20065;-61
2022/10/16 06:27:56;;;;;;;18.50;10.80;;;15.40;87.90;;;;;;5018291;28;20116;-62
2022/10/16 06:30:22;;;;;;;18.60;11.60;;;15.40;88.00;;;;;;5018322;28;20132;-61
2022/10/16 06:32:47;;;;;;;11.50;8.88;;;15.40;88.00;;;;;;5017384;28;20041;-62
2022/10/16 06:35:13;;;;;;;10.00;8.20;;;15.40;88.00;;;;;;5018441;28;20034;-61
2022/10/16 06:37:39;;;;;;;6.90;5.85;;;15.40;88.00;;;;;;5018931;28;20038;-61
2022/10/16 06:40:05;;;;;;;8.02;5.68;;;15.50;88.00;;;;;;5011987;28;20742;-61
2022/10/16 06:42:30;;;;;;;8.00;6.25;;;15.50;88.00;;;;;;5018122;28;20095;-61
2022/10/16 06:44:56;;;;;;;16.05;11.82;;;15.50;88.00;;;;;;5018607;28;20494;-62
2022/10/16 06:47:22;;;;;;;15.23;10.27;;;15.60;88.10;;;;;;5016626;28;20052;-62
2022/10/16 06:49:47;;;;;;;11.30;8.32;;;15.60;88.10;;;;;;5018611;28;20701;-62
2022/10/16 06:52:13;;;;;;;7.72;6.35;;;15.50;88.10;;;;;;5017920;28;20463;-62
2022/10/16 06:54:38;;;;;;;7.30;6.03;;;15.60;88.40;;;;;;5017517;28;20125;-61
2022/10/16 06:57:04;;;;;;;9.05;6.82;;;15.60;88.50;;;;;;5017965;28;20071;-61
2022/10/16 06:59:29;;;;;;;7.95;6.30;;;15.60;88.60;;;;;;5019002;28;20041;-62
2022/10/16 07:01:55;;;;;;;9.70;6.10;;;15.60;88.50;;;;;;5014284;28;20130;-59
2022/10/16 07:04:21;;;;;;;6.20;5.45;;;15.70;88.60;;;;;;5009091;28;20711;-63
2022/10/16 07:06:46;;;;;;;11.85;7.90;;;15.70;88.60;;;;;;5007644;28;20045;-62
2022/10/16 07:09:12;;;;;;;8.23;6.68;;;15.70;88.50;;;;;;5015206;28;20443;-62
2022/10/16 07:11:39;;;;;;;7.43;5.55;;;15.80;88.70;;;;;;5012614;28;20032;-62
2022/10/16 07:14:14;;;;;;;8.27;5.43;;;15.80;88.80;;;;;;5017934;28;20042;-63
2022/10/16 07:16:40;;;;;;;;;;;15.80;88.80;;;;;;5016414;28;20105;-62
2022/10/16 07:19:05;;;;;;;5.32;3.70;;;16.00;89.00;;;;;;5017725;28;20757;-63
2022/10/16 07:21:36;;;;;;;3.78;3.13;;;15.90;88.30;;;;;;5016803;28;20561;-62
2022/10/16 07:24:03;;;;;;;3.20;2.70;;;16.00;88.50;;;;;;5015509;28;20068;-62
2022/10/16 07:26:32;;;;;;;3.15;2.85;;;16.00;88.60;;;;;;5016340;28;20089;-62
2022/10/16 07:28:58;;;;;;;3.30;2.50;;;16.10;88.70;;;;;;5018542;28;20494;-62
2022/10/16 07:31:24;;;;;;;3.75;2.10;;;16.10;88.80;;;;;;5015175;28;20049;-62
2022/10/16 07:33:50;;;;;;;2.90;2.10;;;16.10;88.80;;;;;;5018852;28;20569;-61
2022/10/16 07:36:18;;;;;;;2.08;1.83;;;16.20;88.80;;;;;;5019734;28;20041;-62
2022/10/16 07:38:44;;;;;;;2.30;1.73;;;16.20;88.80;;;;;;5019374;28;20471;-62
2022/10/16 07:41:15;;;;;;;1.90;1.80;;;16.30;88.80;;;;;;5017960;28;20169;-62
2022/10/16 07:43:49;;;;;;;4.78;2.53;;;16.30;88.80;;;;;;5016415;28;20034;-62
2022/10/16 07:46:16;;;;;;;4.00;2.67;;;16.40;88.80;;;;;;5014832;28;20239;-62
2022/10/16 07:48:45;;;;;;;3.45;2.33;;;16.40;88.80;;;;;;5016230;28;20129;-62
2022/10/16 07:51:11;;;;;;;3.88;2.83;;;16.50;88.70;;;;;;5015656;28;20048;-63
2022/10/16 07:53:37;;;;;;;4.72;2.60;;;16.60;88.80;;;;;;5013741;28;20045;-63
2022/10/16 07:56:06;;;;;;;2.83;2.40;;;16.60;88.90;;;;;;5019197;28;20034;-62
2022/10/16 07:58:34;;;;;;;3.42;2.35;;;16.70;88.60;;;;;;5017815;28;20041;-61
2022/10/16 08:01:04;;;;;;;2.55;2.35;;;16.70;88.40;;;;;;5015998;28;20061;-63
2022/10/16 08:03:30;;;;;;;3.83;2.22;;;16.80;88.40;;;;;;5015778;28;20042;-63
2022/10/16 08:05:57;;;;;;;2.60;2.20;;;16.80;88.50;;;;;;5017658;28;20413;-63
2022/10/16 08:08:23;;;;;;;2.95;2.13;;;16.90;88.50;;;;;;5016302;28;20508;-62
2022/10/16 08:10:49;;;;;;;3.80;2.50;;;16.90;88.50;;;;;;5015015;28;20522;-62
2022/10/16 08:13:15;;;;;;;2.00;1.52;;;17.00;88.50;;;;;;5015632;28;20038;-63
2022/10/16 08:15:42;;;;;;;5.10;2.20;;;17.00;88.10;;;;;;5015507;28;20505;-61
2022/10/16 08:18:09;;;;;;;2.33;1.67;;;17.10;87.90;;;;;;5015740;28;20053;-62
2022/10/16 08:20:35;;;;;;;2.72;1.60;;;17.10;87.80;;;;;;5014138;28;20098;-62
2022/10/16 08:23:01;;;;;;;1.95;1.70;;;17.20;87.80;;;;;;5014990;28;20041;-63
2022/10/16 08:25:27;;;;;;;7.50;1.70;;;17.20;87.80;;;;;;5017187;28;20595;-63
2022/10/16 08:27:52;;;;;;;1.67;1.58;;;17.30;87.80;;;;;;5016734;28;20049;-65
2022/10/16 08:30:20;;;;;;;2.70;1.88;;;17.30;87.50;;;;;;5014298;28;20045;-63
2022/10/16 08:32:46;;;;;;;3.33;2.05;;;17.40;87.60;;;;;;5016277;28;20440;-61
2022/10/16 08:35:13;;;;;;;3.85;2.00;;;17.40;87.50;;;;;;5015080;28;20042;-63
2022/10/16 08:37:40;;;;;;;2.88;1.90;;;17.50;87.30;;;;;;5019433;28;20086;-63
2022/10/16 08:40:12;;;;;;;2.08;1.80;;;17.60;87.60;;;;;;5015785;28;20523;-63
2022/10/16 08:42:43;;;;;;;3.95;1.83;;;17.60;87.10;;;;;;5014633;28;20030;-63
2022/10/16 08:45:31;;;;;;;3.55;1.88;;;17.60;87.10;;;;;;5010413;28;20095;-63
2022/10/16 08:48:02;;;;;;;3.17;1.80;;;17.70;86.60;;;;;;5014934;28;20033;-62
2022/10/16 08:50:31;;;;;;;4.75;1.90;;;17.70;86.50;;;;;;5016290;28;21018;-63
2022/10/16 08:52:57;;;;;;;3.72;1.60;;;17.70;86.30;;;;;;5016839;28;20410;-63
2022/10/16 08:55:41;;;;;;;1.70;1.60;;;17.80;86.40;;;;;;5017261;28;20421;-62
2022/10/16 08:58:13;;;;;;;3.85;1.60;;;17.80;86.20;;;;;;5017297;28;20055;-63
2022/10/16 09:00:40;;;;;;;3.40;1.58;;;17.90;86.20;;;;;;5014790;28;20037;-63
2022/10/16 09:03:49;;;;;;;3.20;1.75;;;17.90;86.40;;;;;;5017489;28;20040;-63
2022/10/16 09:06:25;;;;;;;2.75;1.90;;;18.00;86.10;;;;;;5017399;28;20072;-63
2022/10/16 09:08:59;;;;;;;2.60;2.15;;;18.00;86.00;;;;;;5015423;28;20041;-63
2022/10/16 09:11:33;;;;;;;2.25;2.03;;;18.10;86.00;;;;;;5014009;28;20034;-63
2022/10/16 09:14:25;;;;;;;4.82;2.03;;;18.20;85.90;;;;;;5015066;28;20469;-63
2022/10/16 09:16:59;;;;;;;2.80;2.30;;;18.20;85.60;;;;;;5017140;28;20041;-63
2022/10/16 09:19:37;;;;;;;5.32;4.90;;;18.30;85.50;;;;;;5016038;28;20046;-63
2022/10/16 09:22:14;;;;;;;5.22;4.70;;;18.40;85.30;;;;;;5013690;28;20528;-62
2022/10/16 09:24:39;;;;;;;3.78;2.97;;;18.40;85.30;;;;;;5011915;28;20042;-61
2022/10/16 09:27:12;;;;;;;3.30;2.42;;;18.50;85.50;;;;;;5017054;28;20103;-63
2022/10/16 09:29:37;;;;;;;3.78;2.53;;;18.60;85.30;;;;;;5016773;28;20611;-62
2022/10/16 09:32:17;;;;;;;2.60;2.40;;;18.60;85.30;;;;;;5015300;28;20125;-63
2022/10/16 09:34:56;;;;;;;3.13;2.83;;;18.70;85.00;;;;;;5011483;28;20069;-63
2022/10/16 09:37:23;;;;;;;2.85;1.80;;;18.80;85.00;;;;;;5016130;28;20276;-63
2022/10/16 09:39:54;;;;;;;3.65;1.90;;;18.90;85.70;;;;;;5014577;28;20472;-62
2022/10/16 09:42:40;;;;;;;1.50;1.40;;;19.00;84.80;;;;;;5016304;28;20042;-63
2022/10/16 09:45:19;;;;;;;1.48;1.38;;;19.10;83.60;;;;;;5015274;28;20519;-63
2022/10/16 09:47:45;;;;;;;1.88;1.27;;;19.10;84.00;;;;;;5013040;28;20036;-63
2022/10/16 09:50:26;;;;;;;2.65;1.10;;;19.20;83.60;;;;;;5015953;28;20046;-63
2022/10/16 09:53:11;;;;;;;1.95;0.90;;;19.30;82.00;;;;;;5014156;28;20041;-63
2022/10/16 09:55:47;;;;;;;1.10;1.00;;;19.40;82.60;;;;;;5013713;28;20131;-63
2022/10/16 09:58:13;;;;;;;1.27;1.00;;;19.40;81.90;;;;;;5012336;28;20092;-62
2022/10/16 10:00:41;;;;;;;4.07;1.05;;;19.50;81.70;;;;;;5016622;28;20040;-64
2022/10/16 10:03:11;;;;;;;0.95;0.80;;;19.60;81.30;;;;;;5013218;28;21506;-62
2022/10/16 10:05:39;;;;;;;1.55;0.93;;;19.70;80.80;;;;;;5016660;28;20061;-63
2022/10/16 10:08:06;;;;;;;2.45;0.80;;;19.70;81.40;;;;;;5016720;28;20509;-62
2022/10/16 10:10:42;;;;;;;1.13;1.00;;;19.80;80.80;;;;;;5013300;28;20037;-63
2022/10/16 10:13:20;;;;;;;2.40;1.15;;;19.80;80.50;;;;;;5016473;28;20061;-61
2022/10/16 10:15:46;;;;;;;1.80;1.15;;;19.90;80.00;;;;;;5016797;28;20045;-62
2022/10/16 10:18:21;;;;;;;0.93;0.90;;;20.00;80.50;;;;;;5013525;28;20087;-62
2022/10/16 10:20:58;;;;;;;6.82;1.38;;;20.00;79.50;;;;;;5013723;28;20096;-63
2022/10/16 10:23:26;;;;;;;2.67;0.85;;;20.10;78.90;;;;;;5016031;28;20132;-60
2022/10/16 10:26:22;;;;;;;1.73;0.82;;;20.20;79.40;;;;;;5014483;28;20038;-61
2022/10/16 10:29:13;;;;;;;2.28;1.00;;;20.20;78.40;;;;;;5014991;28;20037;-62
2022/10/16 10:31:52;;;;;;;1.90;0.80;;;20.30;78.60;;;;;;5016170;28;20698;-63
2022/10/16 10:34:36;;;;;;;0.82;0.82;;;20.40;78.30;;;;;;5015161;28;20030;-60
2022/10/16 10:37:41;;;;;;;1.50;0.90;;;20.50;77.60;;;;;;5015473;28;20038;-63
2022/10/16 10:40:13;;;;;;;2.47;0.90;;;20.70;77.90;;;;;;4970786;28;20042;-62
2022/10/16 10:42:50;;;;;;;3.08;0.70;;;20.80;78.20;;;;;;5017943;28;20095;-63
2022/10/16 10:45:24;;;;;;;1.35;0.80;;;20.90;76.60;;;;;;5018733;28;20596;-62
2022/10/16 10:48:01;;;;;;;1.60;0.82;;;21.00;75.90;;;;;;5018714;28;20033;-62
2022/10/16 10:50:59;;;;;;;0.77;0.73;;;21.10;77.50;;;;;;5018750;28;20049;-62
2022/10/16 10:53:36;;;;;;;1.45;0.80;;;21.20;76.10;;;;;;4947536;28;20073;-62
2022/10/16 10:56:16;;;;;;;0.93;0.80;;;21.30;75.40;;;;;;5017683;28;20037;-63
2022/10/16 10:58:58;;;;;;;1.35;0.90;;;21.40;75.10;;;;;;5018523;28;20029;-62
2022/10/16 11:01:36;;;;;;;1.85;0.80;;;21.50;74.40;;;;;;5019289;28;20088;-63
2022/10/16 11:04:23;;;;;;;1.38;0.70;;;21.50;75.60;;;;;;5016409;28;20034;-61
2022/10/16 11:07:17;;;;;;;1.05;0.70;;;21.60;74.60;;;;;;5017839;28;20029;-62
2022/10/16 11:09:47;;;;;;;1.60;0.85;;;21.60;75.00;;;;;;5015963;28;20030;-62
2022/10/16 11:12:28;;;;;;;0.70;0.70;;;21.80;74.60;;;;;;5017051;28;20033;-62
2022/10/16 11:15:42;;;;;;;1.98;0.90;;;21.80;74.70;;;;;;5016848;28;20034;-62
2022/10/16 11:18:21;;;;;;;1.20;1.10;;;21.90;74.00;;;;;;5010758;28;20100;-62
2022/10/16 11:20:54;;;;;;;2.95;0.90;;;21.90;74.10;;;;;;5016874;28;20525;-62
2022/10/16 11:23:41;;;;;;;1.92;1.00;;;21.90;72.90;;;;;;5015960;28;20414;-61
2022/10/16 11:26:15;;;;;;;1.80;0.80;;;22.00;72.50;;;;;;5017290;28;20116;-61
2022/10/16 11:28:55;;;;;;;2.33;0.90;;;22.00;72.80;;;;;;5019035;28;20052;-62
2022/10/16 11:31:41;;;;;;;1.88;0.70;;;22.00;72.10;;;;;;5018082;28;20044;-63
2022/10/16 11:34:25;;;;;;;2.20;0.70;;;22.10;71.80;;;;;;5018294;28;20513;-61
2022/10/16 11:37:09;;;;;;;2.03;0.65;;;22.20;71.50;;;;;;5017198;28;20056;-62
2022/10/16 11:39:35;;;;;;;1.40;0.75;;;22.20;71.10;;;;;;5018056;28;20034;-61
2022/10/16 11:42:29;;;;;;;0.73;0.73;;;22.20;71.80;;;;;;5018691;28;20034;-63
2022/10/16 11:44:59;;;;;;;1.27;0.68;;;22.30;70.90;;;;;;4987855;28;20441;-63
2022/10/16 11:47:56;;;;;;;1.23;0.80;;;22.30;70.70;;;;;;5019219;28;20029;-61
2022/10/16 11:50:43;;;;;;;1.63;0.77;;;22.30;70.30;;;;;;5017502;28;20494;-63
2022/10/16 11:53:12;;;;;;;1.25;0.70;;;22.40;69.80;;;;;;5016579;28;20112;-62
2022/10/16 11:55:42;;;;;;;3.45;0.60;;;22.40;70.30;;;;;;5018782;28;20087;-63
2022/10/16 11:58:30;;;;;;;2.20;0.70;;;22.50;70.40;;;;;;5018742;28;20121;-62
2022/10/16 12:01:14;;;;;;;0.82;0.65;;;22.50;69.10;;;;;;5019248;28;20038;-62
2022/10/16 12:03:46;;;;;;;0.77;0.63;;;22.50;70.20;;;;;;5017379;28;20038;-63
2022/10/16 12:06:44;;;;;;;0.70;0.70;;;22.60;70.20;;;;;;5018810;28;20037;-63
2022/10/16 12:09:25;;;;;;;2.42;0.80;;;22.70;68.60;;;;;;5016320;28;20398;-63
2022/10/16 12:11:51;;;;;;;0.93;0.65;;;22.70;68.40;;;;;;5017571;28;20414;-62
2022/10/16 12:14:16;;;;;;;0.60;0.60;;;22.80;68.80;;;;;;5019002;28;20045;-63
2022/10/16 12:16:58;;;;;;;1.05;0.60;;;22.80;68.50;;;;;;5017242;28;20049;-63
2022/10/16 12:19:26;;;;;;;0.82;0.82;;;22.80;66.90;;;;;;5016889;28;20076;-63
2022/10/16 12:21:55;;;;;;;0.80;0.60;;;22.80;67.50;;;;;;5017218;28;20054;-62
2022/10/16 12:24:42;;;;;;;2.05;0.75;;;22.80;66.90;;;;;;5018024;28;20050;-62
2022/10/16 12:27:28;;;;;;;1.73;0.73;;;22.80;66.20;;;;;;5017649;28;20121;-63
2022/10/16 12:29:59;;;;;;;1.13;0.70;;;22.80;66.60;;;;;;5016949;28;20042;-62
2022/10/16 12:32:39;;;;;;;0.85;0.60;;;22.90;66.80;;;;;;5016113;28;20095;-64
2022/10/16 12:35:17;;;;;;;0.57;0.50;;;22.90;65.50;;;;;;5017138;28;20064;-63
2022/10/16 12:37:45;;;;;;;2.47;0.57;;;22.90;65.90;;;;;;5017005;28;20129;-63
2022/10/16 12:40:24;;;;;;;3.55;0.75;;;22.90;66.10;;;;;;5018608;28;20037;-62
2022/10/16 12:42:50;;;;;;;1.30;0.80;;;22.90;66.20;;;;;;5014348;28;20057;-63
2022/10/16 12:45:33;;;;;;;1.10;0.90;;;23.00;66.40;;;;;;5016550;28;20064;-63
2022/10/16 12:48:01;;;;;;;0.88;0.52;;;23.00;65.00;;;;;;5017310;28;20049;-63
2022/10/16 12:50:33;;;;;;;0.60;0.60;;;23.00;66.10;;;;;;5015097;28;20120;-63
2022/10/16 12:53:00;;;;;;;2.45;0.75;;;23.10;65.50;;;;;;5017389;28;20053;-62
2022/10/16 12:55:27;;;;;;;2.40;0.80;;;23.10;66.40;;;;;;5018595;28;20477;-63
2022/10/16 12:58:10;;;;;;;1.30;0.70;;;23.10;66.40;;;;;;5016748;28;20065;-62
2022/10/16 13:00:49;;;;;;;0.77;0.70;;;23.20;65.80;;;;;;5016134;28;20582;-61
2022/10/16 13:03:17;;;;;;;2.45;0.75;;;23.20;66.20;;;;;;5017857;28;20124;-63